Time;durP1;ratioP1;P1;durP2;ratioP2;P2;SDS_P1;SDS_P2;PMS_P1;PMS_P2;Temp;Humidity;BMP_temperature;BMP_pressure;BME280_temperature;BME280_humidity;BME280_pressure;Samples;Min_cycle;Max_cycle;Signal;HPM_P1;HPM_P2
2022/07/10 00:01:50;;;;;;;4.50;1.73;;;;;;;12.79;71.66;102670.41;5069158;28;20036;-73
2022/07/10 00:04:16;;;;;;;3.88;1.60;;;;;;;12.77;72.01;102670.47;5088624;28;20036;-73
2022/07/10 00:06:42;;;;;;;5.18;2.17;;;;;;;12.71;73.02;102672.66;5088460;28;20075;-74
2022/07/10 00:09:09;;;;;;;6.20;2.08;;;;;;;12.65;72.63;102678.44;5080753;28;20048;-73
2022/07/10 00:11:34;;;;;;;6.95;1.77;;;;;;;12.62;72.65;102682.22;5068009;28;20044;-73
2022/07/10 00:13:59;;;;;;;2.40;2.00;;;;;;;12.59;73.27;102676.00;5066424;28;20036;-73
2022/07/10 00:16:25;;;;;;;3.15;1.73;;;;;;;12.55;73.18;102677.16;5066399;28;20504;-73
2022/07/10 00:18:51;;;;;;;6.88;1.80;;;;;;;12.50;73.35;102672.81;5066605;28;20487;-73
2022/07/10 00:21:16;;;;;;;5.82;1.50;;;;;;;12.40;74.42;102667.88;5068098;28;20044;-74
2022/07/10 00:23:42;;;;;;;5.80;2.10;;;;;;;12.40;73.28;102663.34;5069715;28;20334;-74
2022/07/10 00:26:08;;;;;;;3.50;1.80;;;;;;;12.41;73.54;102669.69;5084293;28;20059;-73
2022/07/10 00:28:36;;;;;;;3.55;1.73;;;;;;;12.40;73.20;102670.63;5068816;28;20404;-72
2022/07/10 00:31:02;;;;;;;5.53;2.33;;;;;;;12.34;73.38;102674.53;5067484;28;20131;-73
2022/07/10 00:33:27;;;;;;;5.15;1.50;;;;;;;12.31;73.49;102666.53;5078420;28;20107;-73
2022/07/10 00:35:53;;;;;;;2.95;1.50;;;;;;;12.27;74.59;102670.38;5067476;28;20571;-74
2022/07/10 00:38:19;;;;;;;4.15;1.85;;;;;;;12.27;73.65;102662.19;5067211;28;20111;-73
2022/07/10 00:40:44;;;;;;;3.72;1.77;;;;;;;12.27;73.79;102661.31;5065348;28;20143;-72
2022/07/10 00:43:10;;;;;;;5.72;1.83;;;;;;;12.28;73.65;102665.81;5065617;28;20107;-71
2022/07/10 00:45:35;;;;;;;1.85;1.50;;;;;;;12.25;74.36;102661.38;5066727;28;20032;-73
2022/07/10 00:48:01;;;;;;;3.72;1.52;;;;;;;12.22;74.33;102651.50;5067968;28;20045;-74
2022/07/10 00:50:26;;;;;;;5.95;1.88;;;;;;;12.23;74.14;102653.25;5065299;28;20340;-73
2022/07/10 00:52:52;;;;;;;6.47;1.77;;;;;;;12.23;74.84;102653.25;5067235;28;20052;-73
2022/07/10 00:55:17;;;;;;;4.38;1.90;;;;;;;12.23;74.11;102656.00;5066749;28;20032;-74
2022/07/10 00:57:43;;;;;;;5.90;1.77;;;;;;;12.24;74.30;102654.16;5070581;28;20131;-74
2022/07/10 01:00:11;;;;;;;5.72;1.83;;;;;;;12.22;74.89;102651.50;5086041;28;20432;-72
2022/07/10 01:02:40;;;;;;;3.95;1.80;;;;;;;12.24;74.75;102649.56;5074783;28;20399;-73
2022/07/10 01:05:06;;;;;;;3.83;1.83;;;;;;;12.25;75.22;102645.00;5087199;28;20118;-73
2022/07/10 01:07:31;;;;;;;3.25;1.77;;;;;;;12.28;75.23;102639.38;5087841;28;20158;-73
2022/07/10 01:09:59;;;;;;;4.90;2.08;;;;;;;12.30;75.37;102628.38;5077982;28;20466;-75
2022/07/10 01:12:25;;;;;;;5.00;1.73;;;;;;;12.29;74.79;102632.09;5065475;28;20041;-73
2022/07/10 01:14:51;;;;;;;1.70;1.60;;;;;;;12.28;75.73;102631.19;5066452;28;20024;-73
2022/07/10 01:17:17;;;;;;;3.75;1.88;;;;;;;12.28;75.10;102630.31;5066186;28;20044;-72
2022/07/10 01:19:42;;;;;;;2.65;1.50;;;;;;;12.23;75.36;102625.09;5065278;28;20522;-74
2022/07/10 01:22:08;;;;;;;5.20;1.85;;;;;;;12.16;75.38;102610.88;5066682;28;20040;-73
2022/07/10 01:24:33;;;;;;;8.07;2.30;;;;;;;12.13;75.96;102623.81;5066477;28;20107;-73
2022/07/10 01:26:59;;;;;;;6.88;2.03;;;;;;;12.10;75.21;102621.22;5065787;28;20407;-72
2022/07/10 01:29:25;;;;;;;7.70;2.17;;;;;;;12.08;75.45;102617.69;5067713;28;20024;-71
2022/07/10 01:31:50;;;;;;;4.22;2.17;;;;;;;12.04;75.92;102613.34;5074397;28;20394;-71
2022/07/10 01:34:16;;;;;;;4.43;2.22;;;;;;;11.95;76.29;102617.41;5064940;28;20033;-72
2022/07/10 01:36:42;;;;;;;4.07;1.80;;;;;;;11.96;75.65;102619.19;5066647;28;20173;-73
2022/07/10 01:39:07;;;;;;;5.93;1.73;;;;;;;11.97;75.09;102627.28;5065526;28;20032;-73
2022/07/10 01:41:33;;;;;;;2.90;2.45;;;;;;;11.92;75.51;102625.75;5065536;28;20181;-73
2022/07/10 01:43:59;;;;;;;5.65;2.05;;;;;;;11.88;75.74;102627.72;5064829;28;20086;-72
2022/07/10 01:46:25;;;;;;;2.95;1.83;;;;;;;11.83;76.45;102615.28;5066083;28;20040;-74
2022/07/10 01:48:51;;;;;;;5.05;1.58;;;;;;;11.79;76.97;102614.50;5066722;28;20024;-72
2022/07/10 01:51:16;;;;;;;5.20;1.80;;;;;;;11.82;75.76;102614.41;5065179;28;20054;-73
2022/07/10 01:53:42;;;;;;;3.83;1.65;;;;;;;11.79;75.77;102619.09;5066334;28;20051;-72
2022/07/10 01:56:10;;;;;;;3.67;1.77;;;;;;;11.76;75.83;102620.13;5065259;28;20024;-73
2022/07/10 01:58:36;;;;;;;3.28;1.67;;;;;;;11.71;77.28;102608.56;5064818;28;20040;-71
2022/07/10 02:01:03;;;;;;;6.25;1.75;;;;;;;11.67;77.05;102610.56;5066335;28;20044;-73
2022/07/10 02:06:12;;;;;;;6.70;1.67;;;;;;;11.63;76.52;102622.56;5086486;28;20044;-73
2022/07/10 02:08:37;;;;;;;5.40;2.00;;;;;;;11.57;76.89;102616.53;5078559;28;20486;-73
2022/07/10 02:11:03;;;;;;;3.90;1.75;;;;;;;11.57;76.70;102611.09;5069256;28;20458;-73
2022/07/10 02:13:28;;;;;;;6.45;2.25;;;;;;;11.54;76.66;102617.56;5070380;28;20028;-72
2022/07/10 02:15:54;;;;;;;2.85;2.20;;;;;;;11.52;76.34;102622.22;5065401;28;20067;-73
2022/07/10 02:18:20;;;;;;;4.32;1.65;;;;;;;11.53;76.10;102620.38;5066346;28;20059;-73
2022/07/10 02:20:46;;;;;;;5.68;2.08;;;;;;;11.52;76.41;102615.84;5066003;28;20494;-73
2022/07/10 02:23:11;;;;;;;11.15;2.75;;;;;;;11.48;78.15;102616.03;5066289;28;20048;-73
2022/07/10 02:25:37;;;;;;;4.07;1.80;;;;;;;11.49;76.74;102623.22;5065837;28;20044;-73
2022/07/10 02:28:02;;;;;;;7.60;2.00;;;;;;;11.47;76.73;102622.44;5064720;28;20020;-71
2022/07/10 02:30:28;;;;;;;3.05;1.58;;;;;;;11.46;76.55;102623.38;5066037;28;20034;-73
2022/07/10 02:32:53;;;;;;;3.63;1.67;;;;;;;11.43;76.66;102617.19;5087010;28;20078;-73
2022/07/10 02:35:18;;;;;;;7.00;2.38;;;;;;;11.43;76.95;102614.47;5085990;28;20475;-73
2022/07/10 02:37:44;;;;;;;6.68;2.50;;;;;;;11.42;77.21;102618.13;5086175;28;20028;-73
2022/07/10 02:40:10;;;;;;;5.30;1.48;;;;;;;11.39;77.52;102612.84;5075866;28;20025;-73
2022/07/10 02:42:36;;;;;;;2.20;1.67;;;;;;;11.33;77.39;102605.84;5064107;28;20483;-73
2022/07/10 02:45:01;;;;;;;4.38;1.90;;;;;;;11.39;76.85;102611.00;5075561;28;20039;-74
2022/07/10 02:47:27;;;;;;;6.03;1.77;;;;;;;11.40;76.97;102603.72;5068184;28;20027;-73
2022/07/10 02:49:52;;;;;;;7.28;2.25;;;;;;;11.43;77.48;102607.19;5065909;28;20367;-74
2022/07/10 02:52:17;;;;;;;4.05;1.80;;;;;;;11.44;77.09;102603.50;5068240;28;20083;-73
2022/07/10 02:54:43;;;;;;;3.50;1.45;;;;;;;11.46;77.26;102604.28;5069358;28;20075;-73
2022/07/10 02:57:08;;;;;;;4.50;1.83;;;;;;;11.49;77.17;102609.59;5069894;28;20047;-69
2022/07/10 02:59:34;;;;;;;4.00;1.90;;;;;;;11.53;77.90;102604.00;5089406;28;20039;-72
2022/07/10 03:02:00;;;;;;;3.63;1.83;;;;;;;11.56;77.98;102599.28;5078105;28;20030;-73
2022/07/10 03:04:26;;;;;;;3.75;1.90;;;;;;;11.61;77.71;102594.50;5089496;28;20040;-73
2022/07/10 03:06:51;;;;;;;6.22;1.95;;;;;;;11.63;77.41;102586.25;5088239;28;20102;-72
2022/07/10 03:09:17;;;;;;;5.65;1.65;;;;;;;11.66;78.13;102597.91;5084959;28;20123;-72
2022/07/10 03:11:42;;;;;;;7.97;2.10;;;;;;;11.64;77.86;102596.19;5067747;28;20060;-73
2022/07/10 03:14:07;;;;;;;6.72;2.13;;;;;;;11.63;78.83;102598.03;5067363;28;20123;-72
2022/07/10 03:16:33;;;;;;;6.03;1.88;;;;;;;11.62;78.26;102589.94;5069476;28;20036;-73
2022/07/10 03:18:58;;;;;;;4.93;2.00;;;;;;;11.62;77.89;102599.00;5067985;28;20136;-73
2022/07/10 03:21:24;;;;;;;6.53;2.20;;;;;;;11.59;78.64;102601.88;5069245;28;20043;-72
2022/07/10 03:23:50;;;;;;;6.53;2.30;;;;;;;11.55;78.66;102602.97;5066690;28;20044;-72
2022/07/10 03:26:15;;;;;;;4.15;1.95;;;;;;;11.52;78.38;102600.41;5068655;28;20040;-71
2022/07/10 03:28:41;;;;;;;7.25;2.50;;;;;;;11.49;78.20;102595.97;5076656;28;20039;-73
2022/07/10 03:31:06;;;;;;;5.75;3.25;;;;;;;11.48;78.29;102596.94;5068315;28;20020;-72
2022/07/10 03:33:31;;;;;;;3.03;1.80;;;;;;;11.44;79.33;102589.00;5084378;28;20105;-73
2022/07/10 03:35:56;;;;;;;4.90;2.40;;;;;;;11.43;78.83;102581.78;5087692;28;20070;-71
2022/07/10 03:38:22;;;;;;;4.55;1.92;;;;;;;11.44;78.90;102587.13;5081917;28;20131;-72
2022/07/10 03:40:48;;;;;;;4.32;2.28;;;;;;;11.45;79.64;102577.13;5066691;28;20480;-73
2022/07/10 03:43:14;;;;;;;7.68;2.05;;;;;;;11.45;79.57;102583.44;5066079;28;20472;-73
2022/07/10 03:45:39;;;;;;;6.68;2.45;;;;;;;11.47;79.05;102578.81;5083932;28;20040;-72
2022/07/10 03:48:05;;;;;;;5.13;2.08;;;;;;;11.48;78.51;102586.03;5084321;28;20021;-72
2022/07/10 03:50:30;;;;;;;7.80;2.35;;;;;;;11.49;78.89;102581.47;5084167;28;20161;-73
2022/07/10 03:52:55;;;;;;;5.38;2.10;;;;;;;11.50;78.84;102591.41;5068672;28;20040;-72
2022/07/10 03:55:21;;;;;;;6.10;2.30;;;;;;;11.49;78.85;102587.78;5067993;28;20040;-72
2022/07/10 03:57:56;;;;;;;4.35;2.25;;;;;;;11.50;78.45;102581.38;5073113;28;20032;-72
2022/07/10 04:00:26;;;;;;;3.97;2.03;;;;;;;11.53;79.00;102579.47;5088553;28;20085;-73
2022/07/10 04:03:10;;;;;;;4.65;2.08;;;;;;;11.56;77.73;102579.31;5083039;28;20051;-71
2022/07/10 04:05:36;;;;;;;3.72;1.88;;;;;;;11.55;79.26;102580.28;5068121;28;20048;-73
2022/07/10 04:08:03;;;;;;;5.32;1.98;;;;;;;11.56;79.14;102582.91;5067756;28;20399;-72
2022/07/10 04:10:30;;;;;;;2.72;1.90;;;;;;;11.59;79.28;102573.72;5074226;28;20044;-73
2022/07/10 04:12:55;;;;;;;2.30;2.08;;;;;;;11.65;79.32;102571.56;5066610;28;20417;-73
2022/07/10 04:15:22;;;;;;;6.85;2.00;;;;;;;11.72;79.50;102583.06;5066616;28;20043;-72
2022/07/10 04:17:48;;;;;;;7.25;2.38;;;;;;;11.80;79.34;102593.56;5065719;28;20036;-73
2022/07/10 04:20:14;;;;;;;4.80;2.58;;;;;;;11.86;80.61;102585.16;5066282;28;20094;-74
2022/07/10 04:22:40;;;;;;;5.78;2.40;;;;;;;11.93;79.71;102583.88;5066814;28;20107;-73
2022/07/10 04:25:06;;;;;;;6.03;2.50;;;;;;;11.98;80.54;102569.06;5067457;28;20124;-71
2022/07/10 04:27:31;;;;;;;10.45;2.53;;;;;;;12.06;81.17;102565.03;5066685;28;20029;-73
2022/07/10 04:29:57;;;;;;;6.32;2.40;;;;;;;12.12;80.45;102576.50;5071934;28;20040;-72
2022/07/10 04:32:22;;;;;;;5.88;2.85;;;;;;;12.18;81.53;102583.53;5076408;28;20104;-74
2022/07/10 04:34:48;;;;;;;6.05;2.03;;;;;;;12.22;80.36;102588.75;5086742;28;20359;-73
2022/07/10 04:37:13;;;;;;;5.13;2.55;;;;;;;12.32;81.16;102585.53;5088012;28;20378;-73
2022/07/10 04:39:39;;;;;;;3.45;2.53;;;;;;;12.38;80.46;102587.94;5069172;28;20068;-72
2022/07/10 04:42:05;;;;;;;6.75;2.90;;;;;;;12.44;79.84;102577.56;5066000;28;20036;-73
2022/07/10 04:44:31;;;;;;;7.13;2.67;;;;;;;12.51;80.67;102573.56;5083271;28;20098;-73
2022/07/10 04:46:58;;;;;;;5.72;3.28;;;;;;;12.60;80.27;102571.31;5066902;28;20020;-73
2022/07/10 04:49:23;;;;;;;5.03;2.80;;;;;;;12.66;80.58;102576.44;5067718;28;20068;-73
2022/07/10 04:51:49;;;;;;;7.60;3.17;;;;;;;12.74;81.65;102585.13;5066699;28;20515;-73
2022/07/10 04:54:14;;;;;;;4.47;2.45;;;;;;;12.79;78.73;102582.13;5067197;28;20470;-73
2022/07/10 04:56:39;;;;;;;8.10;3.08;;;;;;;12.88;78.89;102574.31;5067054;28;20040;-74
2022/07/10 04:59:05;;;;;;;6.85;2.58;;;;;;;12.95;78.28;102581.19;5064772;28;20060;-73
2022/07/10 05:01:31;;;;;;;5.82;2.88;;;;;;;13.06;78.27;102586.09;5068090;28;20030;-72
2022/07/10 05:03:57;;;;;;;7.88;2.55;;;;;;;13.11;79.58;102572.19;5085240;28;20028;-73
2022/07/10 05:06:23;;;;;;;4.28;2.40;;;;;;;13.20;78.65;102577.13;5085842;28;20087;-73
2022/07/10 05:08:48;;;;;;;6.80;2.70;;;;;;;13.26;78.66;102576.81;5076614;28;20036;-73
2022/07/10 05:11:13;;;;;;;5.00;2.13;;;;;;;13.35;77.78;102587.25;5066692;28;20080;-73
2022/07/10 05:13:39;;;;;;;3.55;2.30;;;;;;;13.41;79.51;102583.25;5064526;28;20467;-74
2022/07/10 05:16:04;;;;;;;7.93;2.05;;;;;;;13.48;77.65;102595.63;5066367;28;20451;-73
2022/07/10 05:18:30;;;;;;;4.65;2.20;;;;;;;13.55;78.90;102596.16;5067605;28;20083;-73
2022/07/10 05:20:55;;;;;;;3.65;2.22;;;;;;;13.58;77.42;102591.41;5066348;28;20355;-73
2022/07/10 05:23:21;;;;;;;3.05;2.10;;;;;;;13.60;77.45;102586.72;5066855;28;20093;-73
2022/07/10 05:25:47;;;;;;;4.53;2.22;;;;;;;13.60;76.59;102581.25;5065954;28;20028;-72
2022/07/10 05:28:15;;;;;;;7.43;2.38;;;;;;;13.60;76.01;102580.38;5065073;28;20144;-73
2022/07/10 05:30:41;;;;;;;5.53;2.97;;;;;;;13.59;76.96;102586.81;5066570;28;20561;-73
2022/07/10 05:33:06;;;;;;;8.98;2.42;;;;;;;13.58;76.65;102588.66;5077968;28;20032;-73
2022/07/10 05:35:32;;;;;;;5.50;2.30;;;;;;;13.56;76.52;102586.97;5081352;28;20062;-72
2022/07/10 05:37:57;;;;;;;8.23;2.60;;;;;;;13.58;76.20;102582.31;5066571;28;20120;-73
2022/07/10 05:40:22;;;;;;;6.65;2.20;;;;;;;13.58;76.51;102580.47;5072322;28;20031;-72
2022/07/10 05:42:48;;;;;;;5.88;2.03;;;;;;;13.59;77.16;102582.22;5064415;28;20044;-72
2022/07/10 05:45:13;;;;;;;6.82;2.10;;;;;;;13.60;79.48;102581.25;5064648;28;20402;-73
2022/07/10 05:47:38;;;;;;;11.98;2.05;;;;;;;13.63;79.04;102577.47;5083488;28;20027;-72
2022/07/10 05:50:04;;;;;;;5.95;1.95;;;;;;;13.66;78.97;102585.47;5086587;28;20093;-73
2022/07/10 05:52:30;;;;;;;7.80;1.77;;;;;;;13.71;78.51;102586.13;5078163;28;20351;-73
2022/07/10 05:54:56;;;;;;;6.28;1.63;;;;;;;13.75;78.53;102595.88;5065830;28;20051;-73
2022/07/10 05:57:22;;;;;;;5.13;1.70;;;;;;;13.77;79.21;102588.50;5065218;28;20478;-73
2022/07/10 05:59:47;;;;;;;9.38;1.75;;;;;;;13.82;77.65;102591.84;5081819;28;20028;-71
2022/07/10 06:02:13;;;;;;;9.48;1.60;;;;;;;13.86;77.54;102593.44;5069502;28;20069;-73
2022/07/10 06:04:39;;;;;;;6.68;2.55;;;;;;;13.92;76.26;102593.06;5085145;28;20044;-73
2022/07/10 06:07:04;;;;;;;3.70;1.50;;;;;;;13.97;76.31;102588.19;5084250;28;20048;-73
2022/07/10 06:09:29;;;;;;;6.32;1.70;;;;;;;14.02;77.49;102580.59;5065087;28;20024;-74
2022/07/10 06:11:55;;;;;;;3.17;1.50;;;;;;;14.08;76.53;102582.06;5064368;28;20040;-68
2022/07/10 06:14:20;;;;;;;5.53;1.83;;;;;;;14.13;77.80;102587.28;5063543;28;20078;-74
2022/07/10 06:16:45;;;;;;;4.18;1.38;;;;;;;14.19;77.51;102584.19;5064351;28;20040;-73
2022/07/10 06:19:11;;;;;;;4.80;1.70;;;;;;;14.26;77.83;102577.34;5065007;28;20032;-73
2022/07/10 06:21:37;;;;;;;4.60;1.65;;;;;;;14.37;78.10;102587.69;5067807;28;20047;-73
2022/07/10 06:24:03;;;;;;;7.38;1.80;;;;;;;14.49;76.19;102582.34;5065126;28;20025;-74
2022/07/10 06:26:28;;;;;;;6.35;1.42;;;;;;;14.63;76.45;102573.28;5071629;28;20137;-72
2022/07/10 06:28:54;;;;;;;3.20;1.98;;;;;;;14.80;76.00;102577.72;5067808;28;20040;-73
2022/07/10 06:31:19;;;;;;;10.10;1.35;;;;;;;14.95;74.79;102579.50;5077375;28;20451;-74
2022/07/10 06:33:44;;;;;;;6.15;1.48;;;;;;;15.07;76.14;102594.31;5072807;28;20040;-71
2022/07/10 06:36:12;;;;;;;6.35;1.85;;;;;;;15.13;74.89;102577.44;5068875;28;20468;-72
2022/07/10 06:38:37;;;;;;;10.80;2.10;;;;;;;15.19;73.33;102574.31;5085893;28;20475;-74
2022/07/10 06:41:03;;;;;;;2.80;1.15;;;;;;;15.25;73.78;102578.53;5073825;28;20048;-73
2022/07/10 06:43:28;;;;;;;8.15;1.42;;;;;;;15.24;72.88;102577.63;5076351;28;20451;-74
2022/07/10 06:45:54;;;;;;;4.38;1.50;;;;;;;15.23;72.07;102578.63;5085298;28;20048;-73
2022/07/10 06:48:20;;;;;;;6.00;1.80;;;;;;;15.27;72.39;102582.94;5068824;28;20044;-73
2022/07/10 06:50:45;;;;;;;9.32;1.60;;;;;;;15.34;73.13;102579.78;5069165;28;20071;-72
2022/07/10 06:53:11;;;;;;;7.53;1.40;;;;;;;15.38;73.13;102581.34;5050476;28;20036;-74
2022/07/10 06:55:37;;;;;;;6.30;1.55;;;;;;;15.42;72.30;102578.31;5068137;28;20029;-73
2022/07/10 06:58:03;;;;;;;5.32;1.73;;;;;;;15.52;71.97;102582.19;5067855;28;20047;-72
2022/07/10 07:00:28;;;;;;;5.80;1.80;;;;;;;15.76;74.67;102581.59;5069874;28;20467;-74
2022/07/10 07:02:54;;;;;;;5.50;1.50;;;;;;;16.08;71.28;102583.06;5078491;28;20126;-75
2022/07/10 07:05:20;;;;;;;6.15;1.90;;;;;;;16.31;69.86;102567.75;5088245;28;20067;-74
2022/07/10 07:07:45;;;;;;;5.78;1.63;;;;;;;16.50;70.95;102566.47;5077288;28;20101;-74
2022/07/10 07:10:11;;;;;;;8.93;1.88;;;;;;;16.57;69.43;102571.44;5069036;28;20158;-72
2022/07/10 07:12:37;;;;;;;6.32;1.67;;;;;;;16.63;69.76;102564.63;5067579;28;20035;-73
2022/07/10 07:15:03;;;;;;;8.52;1.70;;;;;;;16.61;67.81;102571.22;5068364;28;20067;-75
2022/07/10 07:17:45;;;;;;;9.32;1.90;;;;;;;16.60;68.79;102581.34;5064325;28;20127;-74
2022/07/10 07:23:10;;;;;;;9.18;2.38;;;;;;;16.94;68.08;102577.09;5082483;28;20099;-69
2022/07/10 07:25:39;;;;;;;7.28;1.70;;;;;;;16.98;69.21;102591.53;5066499;28;20036;-74
2022/07/10 07:28:05;;;;;;;12.75;1.70;;;;;;;17.07;66.81;102582.59;5073669;28;20040;-73
2022/07/10 07:30:31;;;;;;;6.85;2.15;;;;;;;17.20;68.00;102594.44;5069700;28;20066;-74
2022/07/10 07:32:56;;;;;;;4.15;1.88;;;;;;;17.34;67.32;102590.69;5078501;28;20046;-72
2022/07/10 07:35:22;;;;;;;6.65;1.60;;;;;;;17.40;66.38;102587.50;5089518;28;20134;-73
2022/07/10 07:37:49;;;;;;;3.75;1.40;;;;;;;17.48;66.33;102589.69;5069707;28;20028;-73
2022/07/10 07:40:21;;;;;;;10.77;1.60;;;;;;;17.69;66.60;102592.72;5067675;28;20049;-74
2022/07/10 07:42:47;;;;;;;8.05;2.13;;;;;;;17.87;65.93;102587.75;5066520;28;20491;-73
2022/07/10 07:45:12;;;;;;;5.07;1.80;;;;;;;17.88;66.13;102584.00;5067023;28;20033;-74
2022/07/10 07:47:49;;;;;;;6.97;2.15;;;;;;;17.97;65.60;102589.69;5078831;28;20035;-73
2022/07/10 07:50:21;;;;;;;5.72;1.83;;;;;;;18.01;65.24;102585.72;5072241;28;20479;-72
2022/07/10 07:52:47;;;;;;;5.80;1.98;;;;;;;18.07;65.80;102593.50;5066463;28;20097;-74
2022/07/10 07:55:14;;;;;;;7.90;2.05;;;;;;;18.09;65.43;102593.38;5068076;28;20040;-72
2022/07/10 07:57:40;;;;;;;5.85;2.33;;;;;;;18.05;64.58;102591.88;5067184;28;20032;-73
2022/07/10 08:00:07;;;;;;;5.38;2.22;;;;;;;17.95;64.96;102586.19;5067966;28;20032;-74
2022/07/10 08:02:38;;;;;;;7.25;2.63;;;;;;;17.98;65.24;102593.31;5074984;28;20036;-74
2022/07/10 08:05:06;;;;;;;8.85;2.58;;;;;;;18.07;67.95;102596.25;5089572;28;20054;-73
2022/07/10 08:07:40;;;;;;;9.20;2.80;;;;;;;18.13;63.92;102594.00;5089293;28;20189;-74
2022/07/10 08:10:08;;;;;;;3.83;2.20;;;;;;;18.34;64.93;102598.75;5074039;28;20119;-74
2022/07/10 08:12:33;;;;;;;7.97;2.80;;;;;;;18.43;63.16;102594.41;5070923;28;20036;-74
2022/07/10 08:14:59;;;;;;;8.05;2.20;;;;;;;18.42;63.55;102584.41;5066959;28;20054;-74
2022/07/10 08:17:26;;;;;;;8.73;2.25;;;;;;;18.50;63.27;102581.91;5086492;28;20501;-75
2022/07/10 08:19:51;;;;;;;5.68;2.17;;;;;;;18.66;62.65;102584.34;5088172;28;20530;-74
2022/07/10 08:22:16;;;;;;;10.13;2.17;;;;;;;18.66;62.26;102584.34;5076584;28;20127;-73
2022/07/10 08:24:42;;;;;;;8.10;2.22;;;;;;;18.81;63.53;102585.91;5067803;28;20033;-73
2022/07/10 08:27:08;;;;;;;7.60;1.98;;;;;;;18.89;61.64;102595.47;5081621;28;20078;-71
2022/07/10 08:29:33;;;;;;;4.47;1.80;;;;;;;18.74;61.64;102595.66;5081665;28;20036;-73
2022/07/10 08:31:59;;;;;;;8.93;2.28;;;;;;;18.66;62.37;102587.09;5078120;28;20119;-73
2022/07/10 08:34:24;;;;;;;10.40;2.45;;;;;;;18.67;62.51;102591.59;5067894;28;20536;-74
2022/07/10 08:36:50;;;;;;;8.82;3.05;;;;;;;18.51;62.16;102583.69;5067257;28;20456;-73
2022/07/10 08:39:16;;;;;;;10.70;2.58;;;;;;;18.43;62.81;102580.63;5066181;28;21324;-69
2022/07/10 08:41:42;;;;;;;5.20;2.58;;;;;;;18.45;63.35;102584.13;5066221;28;20036;-73
2022/07/10 08:44:08;;;;;;;11.68;2.80;;;;;;;18.38;62.24;102580.13;5067961;28;20183;-73
2022/07/10 08:46:35;;;;;;;8.13;2.88;;;;;;;18.32;62.87;102583.31;5069077;28;20432;-68
2022/07/10 08:49:09;;;;;;;7.80;2.53;;;;;;;18.38;62.62;102591.13;5068448;28;20036;-72
2022/07/10 08:51:34;;;;;;;8.07;2.88;;;;;;;18.36;63.45;102582.09;5064805;28;20028;-74
2022/07/10 08:54:00;;;;;;;7.18;2.65;;;;;;;18.35;64.14;102581.22;5065099;28;20047;-72
2022/07/10 08:56:26;;;;;;;9.27;2.40;;;;;;;18.44;64.96;102585.13;5065431;28;20021;-75
2022/07/10 08:58:53;;;;;;;7.72;2.00;;;;;;;18.61;65.35;102594.84;5064664;28;20101;-73
2022/07/10 09:01:22;;;;;;;7.32;2.28;;;;;;;18.63;62.09;102597.47;5065997;28;20110;-74
2022/07/10 09:03:49;;;;;;;4.97;1.70;;;;;;;18.71;62.99;102592.28;5067424;28;20456;-72
2022/07/10 09:06:15;;;;;;;5.68;2.30;;;;;;;18.68;64.60;102590.59;5065652;28;20052;-75
2022/07/10 09:08:57;;;;;;;4.40;1.63;;;;;;;18.57;63.88;102585.94;5066866;28;20342;-74
2022/07/10 09:11:25;;;;;;;10.02;2.50;;;;;;;18.69;64.07;102586.88;5065341;28;20098;-74
2022/07/10 09:13:52;;;;;;;6.75;1.63;;;;;;;18.68;63.23;102586.97;5064573;28;20047;-73
2022/07/10 09:16:30;;;;;;;6.28;1.80;;;;;;;18.67;63.56;102590.72;5066278;28;20123;-72
2022/07/10 09:18:56;;;;;;;4.15;2.38;;;;;;;18.83;63.81;102583.00;5066610;28;20149;-74
2022/07/10 09:21:22;;;;;;;9.27;2.10;;;;;;;19.08;62.50;102568.16;5067008;28;20428;-73
2022/07/10 09:23:48;;;;;;;5.13;2.47;;;;;;;19.20;62.18;102563.50;5065367;28;20068;-72
2022/07/10 09:26:13;;;;;;;5.97;1.85;;;;;;;19.13;62.03;102563.13;5065043;28;20423;-74
2022/07/10 09:28:39;;;;;;;8.35;2.17;;;;;;;19.05;62.34;102569.25;5064260;28;20033;-74
2022/07/10 09:31:05;;;;;;;5.75;2.28;;;;;;;19.02;62.12;102565.88;5066356;28;20501;-74
2022/07/10 09:33:31;;;;;;;6.22;1.83;;;;;;;19.04;64.00;102566.63;5077573;28;20075;-73
2022/07/10 09:36:33;;;;;;;4.13;2.15;;;;;;;19.04;62.05;102559.22;5064447;28;20063;-71
2022/07/10 09:38:53;;;;;;;8.98;2.10;;;;;;;19.30;61.70;102564.50;5064689;28;20060;-72
2022/07/10 09:41:21;;;;;;;3.90;2.10;;;;;;;19.72;60.50;102553.69;5067867;28;20545;-74
2022/07/10 09:44:01;;;;;;;7.53;2.10;;;;;;;20.04;63.19;102554.59;5064475;28;20123;-74
2022/07/10 09:46:31;;;;;;;3.55;1.67;;;;;;;20.20;60.95;102558.81;5065718;28;20437;-72
2022/07/10 09:49:09;;;;;;;3.33;1.83;;;;;;;20.31;59.24;102558.75;5066066;28;20020;-72
2022/07/10 09:51:36;;;;;;;7.18;2.15;;;;;;;20.30;59.72;102559.78;5064625;28;20036;-73
2022/07/10 09:54:04;;;;;;;4.07;2.35;;;;;;;20.62;58.85;102555.13;5066752;28;20028;-72
2022/07/10 09:56:51;;;;;;;4.93;2.10;;;;;;;20.63;59.04;102545.78;5066250;28;20050;-73
2022/07/10 09:59:20;;;;;;;5.20;2.38;;;;;;;20.60;60.41;102546.06;5064188;28;20127;-74
2022/07/10 10:01:48;;;;;;;6.05;2.20;;;;;;;20.48;58.26;102549.03;5065647;28;20028;-73
2022/07/10 10:04:19;;;;;;;5.47;2.92;;;;;;;20.38;58.54;102541.50;5074898;28;20040;-73
2022/07/10 10:06:52;;;;;;;9.38;3.45;;;;;;;20.28;58.64;102543.31;5081423;28;20277;-73
2022/07/10 10:09:37;;;;;;;6.60;2.55;;;;;;;20.73;59.91;102544.97;5066052;28;20040;-73
2022/07/10 10:12:16;;;;;;;6.32;2.35;;;;;;;21.26;57.78;102544.81;5065626;28;20052;-74
2022/07/10 10:14:41;;;;;;;6.93;2.50;;;;;;;21.64;57.65;102538.56;5064522;28;20032;-73
2022/07/10 10:17:07;;;;;;;11.13;3.42;;;;;;;21.76;55.55;102540.19;5065267;28;20085;-74
2022/07/10 10:22:19;;;;;;;4.35;2.28;;;;;;;21.48;54.25;102544.63;5070290;28;20027;-74
2022/07/10 10:24:46;;;;;;;5.93;2.53;;;;;;;21.21;56.27;102549.88;5080863;28;20040;-73
2022/07/10 10:27:12;;;;;;;5.95;2.50;;;;;;;21.09;57.21;102536.16;5064569;28;20543;-73
2022/07/10 10:29:38;;;;;;;4.82;2.42;;;;;;;21.29;56.77;102533.47;5065080;28;20108;-74
2022/07/10 10:32:04;;;;;;;5.60;2.17;;;;;;;21.32;57.42;102530.47;5067834;28;20036;-68
2022/07/10 10:34:59;;;;;;;4.32;2.28;;;;;;;21.45;55.94;102530.19;5086604;28;20332;-73
2022/07/10 10:37:27;;;;;;;4.93;2.00;;;;;;;21.88;57.07;102538.19;5071502;28;20471;-73
2022/07/10 10:39:56;;;;;;;7.68;1.92;;;;;;;22.41;55.94;102546.09;5064890;28;20080;-74
2022/07/10 10:42:33;;;;;;;3.83;1.77;;;;;;;22.41;53.67;102533.09;5081860;28;20051;-74
2022/07/10 10:45:22;;;;;;;6.60;1.65;;;;;;;22.64;55.21;102532.78;5065650;28;20045;-73
2022/07/10 10:48:16;;;;;;;3.60;1.83;;;;;;;22.27;52.91;102536.31;5065420;28;20097;-73
2022/07/10 10:50:56;;;;;;;4.57;1.33;;;;;;;22.41;54.47;102537.78;5068461;28;20450;-73
2022/07/10 10:53:26;;;;;;;8.40;2.65;;;;;;;22.62;54.14;102534.84;5085950;28;20036;-69
2022/07/10 10:56:00;;;;;;;17.92;4.15;;;;;;;22.94;52.64;102528.91;5064037;28;20047;-73
2022/07/10 10:58:27;;;;;;;17.80;4.38;;;;;;;22.80;51.33;102527.50;5065838;28;20064;-72
2022/07/10 11:01:02;;;;;;;6.03;1.67;;;;;;;22.76;53.34;102530.72;5065491;28;20029;-72
2022/07/10 11:03:28;;;;;;;4.88;2.03;;;;;;;22.62;50.95;102534.84;5078944;28;20040;-73
2022/07/10 11:05:53;;;;;;;3.65;1.40;;;;;;;22.42;52.89;102525.66;5064291;28;20148;-73
2022/07/10 11:08:45;;;;;;;5.28;1.48;;;;;;;22.64;53.73;102530.88;5065654;28;20040;-73
2022/07/10 11:11:37;;;;;;;4.47;1.40;;;;;;;22.90;53.64;102521.94;5063565;28;20078;-71
2022/07/10 11:14:04;;;;;;;3.28;1.63;;;;;;;23.00;53.09;102514.47;5065319;28;20143;-72
2022/07/10 11:16:32;;;;;;;5.88;1.80;;;;;;;23.24;53.34;102515.81;5069375;28;20549;-73
2022/07/10 11:18:57;;;;;;;5.88;1.65;;;;;;;23.56;52.15;102507.03;5067241;28;20514;-71
2022/07/10 11:21:25;;;;;;;3.88;1.40;;;;;;;23.33;49.67;102504.66;5067503;28;20460;-73
2022/07/10 11:24:28;;;;;;;3.40;1.65;;;;;;;23.14;53.18;102511.19;5068668;28;20052;-73
2022/07/10 11:27:15;;;;;;;3.90;1.58;;;;;;;23.26;52.73;102506.28;5067808;28;20041;-72
2022/07/10 11:29:40;;;;;;;3.20;1.70;;;;;;;23.02;49.57;102511.53;5067091;28;20041;-72
2022/07/10 11:32:07;;;;;;;6.25;1.77;;;;;;;23.04;49.92;102507.59;5067703;28;20081;-74
2022/07/10 11:34:36;;;;;;;3.13;1.30;;;;;;;22.90;51.38;102506.16;5068398;28;20028;-71